sensor_id;sensor_type;location;lat;lon;timestamp;P1;durP1;ratioP1;P2;durP2;ratioP2
6386;SDS011;3226;42.162;24.756;2023-07-13T00:02:04;5.90;;;5.70;;
6386;SDS011;3226;42.162;24.756;2023-07-13T00:04:32;5.73;;;5.53;;
6386;SDS011;3226;42.162;24.756;2023-07-13T00:07:02;5.97;;;5.77;;
6386;SDS011;3226;42.162;24.756;2023-07-13T00:09:30;6.00;;;5.80;;
6386;SDS011;3226;42.162;24.756;2023-07-13T00:11:58;8.20;;;7.90;;
6386;SDS011;3226;42.162;24.756;2023-07-13T00:14:26;8.73;;;8.33;;
6386;SDS011;3226;42.162;24.756;2023-07-13T00:16:56;8.10;;;7.80;;
6386;SDS011;3226;42.162;24.756;2023-07-13T00:19:27;7.87;;;7.57;;
6386;SDS011;3226;42.162;24.756;2023-07-13T00:21:54;8.90;;;8.50;;
6386;SDS011;3226;42.162;24.756;2023-07-13T00:24:24;8.27;;;7.93;;
6386;SDS011;3226;42.162;24.756;2023-07-13T00:26:53;6.13;;;5.93;;
6386;SDS011;3226;42.162;24.756;2023-07-13T00:29:22;5.80;;;5.60;;
6386;SDS011;3226;42.162;24.756;2023-07-13T00:31:50;5.53;;;5.33;;
6386;SDS011;3226;42.162;24.756;2023-07-13T00:34:18;6.40;;;6.10;;
6386;SDS011;3226;42.162;24.756;2023-07-13T00:36:46;6.50;;;6.20;;
6386;SDS011;3226;42.162;24.756;2023-07-13T00:39:14;7.33;;;7.03;;
6386;SDS011;3226;42.162;24.756;2023-07-13T00:41:43;6.37;;;6.07;;
6386;SDS011;3226;42.162;24.756;2023-07-13T00:44:12;6.83;;;6.53;;
6386;SDS011;3226;42.162;24.756;2023-07-13T00:46:42;5.83;;;5.63;;
6386;SDS011;3226;42.162;24.756;2023-07-13T00:49:12;7.73;;;7.43;;
6386;SDS011;3226;42.162;24.756;2023-07-13T00:51:47;7.60;;;7.30;;
6386;SDS011;3226;42.162;24.756;2023-07-13T00:54:18;7.63;;;7.33;;
6386;SDS011;3226;42.162;24.756;2023-07-13T00:56:52;6.60;;;6.30;;
6386;SDS011;3226;42.162;24.756;2023-07-13T00:59:23;7.47;;;7.17;;
6386;SDS011;3226;42.162;24.756;2023-07-13T01:01:52;7.53;;;7.13;;
6386;SDS011;3226;42.162;24.756;2023-07-13T01:04:20;6.53;;;6.23;;
6386;SDS011;3226;42.162;24.756;2023-07-13T01:06:51;5.43;;;5.23;;
6386;SDS011;3226;42.162;24.756;2023-07-13T01:09:20;6.60;;;6.30;;
6386;SDS011;3226;42.162;24.756;2023-07-13T01:11:48;6.60;;;6.30;;
6386;SDS011;3226;42.162;24.756;2023-07-13T01:14:17;6.57;;;6.27;;
6386;SDS011;3226;42.162;24.756;2023-07-13T01:16:46;7.70;;;7.40;;
6386;SDS011;3226;42.162;24.756;2023-07-13T01:19:18;6.57;;;6.27;;
6386;SDS011;3226;42.162;24.756;2023-07-13T01:22:04;6.47;;;6.17;;
6386;SDS011;3226;42.162;24.756;2023-07-13T01:24:35;6.83;;;6.53;;
6386;SDS011;3226;42.162;24.756;2023-07-13T01:27:03;6.80;;;6.50;;
6386;SDS011;3226;42.162;24.756;2023-07-13T01:29:33;8.90;;;8.50;;
6386;SDS011;3226;42.162;24.756;2023-07-13T01:32:09;8.13;;;7.83;;
6386;SDS011;3226;42.162;24.756;2023-07-13T01:34:38;6.93;;;6.63;;
6386;SDS011;3226;42.162;24.756;2023-07-13T01:37:10;6.73;;;6.43;;
6386;SDS011;3226;42.162;24.756;2023-07-13T01:39:40;6.23;;;5.97;;
6386;SDS011;3226;42.162;24.756;2023-07-13T01:42:08;5.67;;;5.47;;
6386;SDS011;3226;42.162;24.756;2023-07-13T01:44:36;5.93;;;5.73;;
6386;SDS011;3226;42.162;24.756;2023-07-13T01:47:05;5.93;;;5.73;;
6386;SDS011;3226;42.162;24.756;2023-07-13T01:49:33;5.60;;;5.40;;
6386;SDS011;3226;42.162;24.756;2023-07-13T01:52:01;6.80;;;6.50;;
6386;SDS011;3226;42.162;24.756;2023-07-13T01:54:31;5.93;;;5.73;;
6386;SDS011;3226;42.162;24.756;2023-07-13T01:57:00;7.07;;;6.77;;
6386;SDS011;3226;42.162;24.756;2023-07-13T01:59:29;6.27;;;6.00;;
6386;SDS011;3226;42.162;24.756;2023-07-13T02:01:59;6.50;;;6.20;;
6386;SDS011;3226;42.162;24.756;2023-07-13T02:04:27;6.07;;;5.87;;
6386;SDS011;3226;42.162;24.756;2023-07-13T02:06:55;6.00;;;5.80;;
6386;SDS011;3226;42.162;24.756;2023-07-13T02:09:24;7.13;;;6.83;;
6386;SDS011;3226;42.162;24.756;2023-07-13T02:11:53;6.27;;;6.03;;
6386;SDS011;3226;42.162;24.756;2023-07-13T02:14:21;7.23;;;6.93;;
6386;SDS011;3226;42.162;24.756;2023-07-13T02:16:49;6.87;;;6.57;;
6386;SDS011;3226;42.162;24.756;2023-07-13T02:19:17;7.80;;;7.50;;
6386;SDS011;3226;42.162;24.756;2023-07-13T02:21:45;14.93;;;14.27;;
6386;SDS011;3226;42.162;24.756;2023-07-13T02:24:14;16.73;;;15.97;;
6386;SDS011;3226;42.162;24.756;2023-07-13T02:26:44;13.60;;;13.00;;
6386;SDS011;3226;42.162;24.756;2023-07-13T02:29:14;7.97;;;7.67;;
6386;SDS011;3226;42.162;24.756;2023-07-13T02:31:42;6.53;;;6.23;;
6386;SDS011;3226;42.162;24.756;2023-07-13T02:34:10;5.93;;;5.73;;
6386;SDS011;3226;42.162;24.756;2023-07-13T02:36:39;6.30;;;6.07;;
6386;SDS011;3226;42.162;24.756;2023-07-13T02:39:07;5.67;;;5.47;;
6386;SDS011;3226;42.162;24.756;2023-07-13T02:41:36;5.20;;;5.00;;
6386;SDS011;3226;42.162;24.756;2023-07-13T02:44:04;7.77;;;7.47;;
6386;SDS011;3226;42.162;24.756;2023-07-13T02:46:35;9.70;;;9.30;;
6386;SDS011;3226;42.162;24.756;2023-07-13T02:49:05;10.57;;;10.10;;
6386;SDS011;3226;42.162;24.756;2023-07-13T02:51:33;10.67;;;10.17;;
6386;SDS011;3226;42.162;24.756;2023-07-13T02:54:02;8.90;;;8.50;;
6386;SDS011;3226;42.162;24.756;2023-07-13T02:56:31;8.53;;;8.13;;
6386;SDS011;3226;42.162;24.756;2023-07-13T02:58:59;7.40;;;7.10;;
6386;SDS011;3226;42.162;24.756;2023-07-13T03:01:27;7.73;;;7.43;;
6386;SDS011;3226;42.162;24.756;2023-07-13T03:03:57;7.23;;;6.93;;
6386;SDS011;3226;42.162;24.756;2023-07-13T03:06:25;6.87;;;6.57;;
6386;SDS011;3226;42.162;24.756;2023-07-13T03:08:56;7.33;;;7.03;;
6386;SDS011;3226;42.162;24.756;2023-07-13T03:11:24;6.63;;;6.33;;
6386;SDS011;3226;42.162;24.756;2023-07-13T03:13:53;5.93;;;5.73;;
6386;SDS011;3226;42.162;24.756;2023-07-13T03:16:21;7.70;;;7.40;;
6386;SDS011;3226;42.162;24.756;2023-07-13T03:18:49;7.43;;;7.13;;
6386;SDS011;3226;42.162;24.756;2023-07-13T03:21:19;7.57;;;7.27;;
6386;SDS011;3226;42.162;24.756;2023-07-13T03:23:47;8.37;;;7.97;;
6386;SDS011;3226;42.162;24.756;2023-07-13T03:26:17;8.00;;;7.70;;
6386;SDS011;3226;42.162;24.756;2023-07-13T03:28:47;7.90;;;7.60;;
6386;SDS011;3226;42.162;24.756;2023-07-13T03:31:16;7.90;;;7.60;;
6386;SDS011;3226;42.162;24.756;2023-07-13T03:33:47;7.43;;;7.13;;
6386;SDS011;3226;42.162;24.756;2023-07-13T03:36:16;7.20;;;6.90;;
6386;SDS011;3226;42.162;24.756;2023-07-13T03:38:47;6.40;;;6.13;;
6386;SDS011;3226;42.162;24.756;2023-07-13T03:41:16;8.20;;;7.90;;
6386;SDS011;3226;42.162;24.756;2023-07-13T03:43:45;8.90;;;8.50;;
6386;SDS011;3226;42.162;24.756;2023-07-13T03:46:14;14.37;;;13.67;;
6386;SDS011;3226;42.162;24.756;2023-07-13T03:48:43;11.07;;;10.57;;
6386;SDS011;3226;42.162;24.756;2023-07-13T03:51:12;8.10;;;7.80;;
6386;SDS011;3226;42.162;24.756;2023-07-13T03:53:42;5.57;;;5.37;;
6386;SDS011;3226;42.162;24.756;2023-07-13T03:56:12;6.73;;;6.43;;
6386;SDS011;3226;42.162;24.756;2023-07-13T03:58:42;6.40;;;6.10;;
6386;SDS011;3226;42.162;24.756;2023-07-13T04:01:12;5.90;;;5.70;;
6386;SDS011;3226;42.162;24.756;2023-07-13T04:03:41;7.00;;;6.67;;
6386;SDS011;3226;42.162;24.756;2023-07-13T04:06:13;6.30;;;6.07;;
6386;SDS011;3226;42.162;24.756;2023-07-13T04:08:49;6.00;;;5.80;;
6386;SDS011;3226;42.162;24.756;2023-07-13T04:11:19;6.63;;;6.33;;
6386;SDS011;3226;42.162;24.756;2023-07-13T04:13:48;6.50;;;6.20;;
6386;SDS011;3226;42.162;24.756;2023-07-13T04:16:18;6.83;;;6.53;;
6386;SDS011;3226;42.162;24.756;2023-07-13T04:18:47;7.33;;;7.03;;
6386;SDS011;3226;42.162;24.756;2023-07-13T04:21:16;8.00;;;7.60;;
6386;SDS011;3226;42.162;24.756;2023-07-13T04:23:44;6.33;;;6.07;;
6386;SDS011;3226;42.162;24.756;2023-07-13T04:26:14;6.57;;;6.27;;
6386;SDS011;3226;42.162;24.756;2023-07-13T04:28:42;7.60;;;7.30;;
6386;SDS011;3226;42.162;24.756;2023-07-13T04:31:10;6.70;;;6.40;;
6386;SDS011;3226;42.162;24.756;2023-07-13T04:33:39;5.83;;;5.63;;
6386;SDS011;3226;42.162;24.756;2023-07-13T04:36:08;7.37;;;7.07;;
6386;SDS011;3226;42.162;24.756;2023-07-13T04:38:37;7.00;;;6.70;;
6386;SDS011;3226;42.162;24.756;2023-07-13T04:41:06;6.00;;;5.80;;
6386;SDS011;3226;42.162;24.756;2023-07-13T04:43:37;5.77;;;5.57;;
6386;SDS011;3226;42.162;24.756;2023-07-13T04:46:05;7.23;;;6.93;;
6386;SDS011;3226;42.162;24.756;2023-07-13T04:48:34;6.27;;;5.97;;
6386;SDS011;3226;42.162;24.756;2023-07-13T04:51:03;6.17;;;5.93;;
6386;SDS011;3226;42.162;24.756;2023-07-13T04:53:31;7.20;;;6.90;;
6386;SDS011;3226;42.162;24.756;2023-07-13T04:56:01;6.40;;;6.10;;
6386;SDS011;3226;42.162;24.756;2023-07-13T04:58:30;7.33;;;7.03;;
6386;SDS011;3226;42.162;24.756;2023-07-13T05:01:03;6.80;;;6.50;;
6386;SDS011;3226;42.162;24.756;2023-07-13T05:03:33;7.77;;;7.47;;
6386;SDS011;3226;42.162;24.756;2023-07-13T05:06:03;7.27;;;6.97;;
6386;SDS011;3226;42.162;24.756;2023-07-13T05:08:32;8.73;;;8.33;;
6386;SDS011;3226;42.162;24.756;2023-07-13T05:11:00;8.60;;;8.10;;
6386;SDS011;3226;42.162;24.756;2023-07-13T05:13:29;7.47;;;7.17;;
6386;SDS011;3226;42.162;24.756;2023-07-13T05:15:57;7.90;;;7.60;;
6386;SDS011;3226;42.162;24.756;2023-07-13T05:18:29;7.47;;;7.17;;
6386;SDS011;3226;42.162;24.756;2023-07-13T05:20:58;6.97;;;6.67;;
6386;SDS011;3226;42.162;24.756;2023-07-13T05:23:28;6.00;;;5.80;;
6386;SDS011;3226;42.162;24.756;2023-07-13T05:25:56;7.23;;;6.93;;
6386;SDS011;3226;42.162;24.756;2023-07-13T05:28:25;5.93;;;5.73;;
6386;SDS011;3226;42.162;24.756;2023-07-13T05:30:54;5.63;;;5.43;;
6386;SDS011;3226;42.162;24.756;2023-07-13T05:33:22;7.20;;;6.90;;
6386;SDS011;3226;42.162;24.756;2023-07-13T05:35:52;8.00;;;7.70;;
6386;SDS011;3226;42.162;24.756;2023-07-13T05:38:20;6.40;;;6.10;;
6386;SDS011;3226;42.162;24.756;2023-07-13T05:40:49;9.00;;;8.60;;
6386;SDS011;3226;42.162;24.756;2023-07-13T05:43:17;8.07;;;7.77;;
6386;SDS011;3226;42.162;24.756;2023-07-13T05:45:46;8.50;;;8.10;;
6386;SDS011;3226;42.162;24.756;2023-07-13T05:48:14;9.10;;;8.70;;
6386;SDS011;3226;42.162;24.756;2023-07-13T05:50:42;10.37;;;9.87;;
6386;SDS011;3226;42.162;24.756;2023-07-13T05:53:11;6.67;;;6.37;;
6386;SDS011;3226;42.162;24.756;2023-07-13T05:55:40;8.37;;;7.97;;
6386;SDS011;3226;42.162;24.756;2023-07-13T05:58:12;7.80;;;7.50;;
6386;SDS011;3226;42.162;24.756;2023-07-13T06:00:40;8.17;;;7.83;;
6386;SDS011;3226;42.162;24.756;2023-07-13T06:03:08;8.20;;;7.80;;
6386;SDS011;3226;42.162;24.756;2023-07-13T06:05:36;6.77;;;6.47;;
6386;SDS011;3226;42.162;24.756;2023-07-13T06:08:06;6.10;;;5.90;;
6386;SDS011;3226;42.162;24.756;2023-07-13T06:10:36;7.40;;;7.10;;
6386;SDS011;3226;42.162;24.756;2023-07-13T06:13:04;7.90;;;7.50;;
6386;SDS011;3226;42.162;24.756;2023-07-13T06:15:32;8.10;;;7.80;;
6386;SDS011;3226;42.162;24.756;2023-07-13T06:18:00;7.93;;;7.63;;
6386;SDS011;3226;42.162;24.756;2023-07-13T06:20:28;7.80;;;7.50;;
6386;SDS011;3226;42.162;24.756;2023-07-13T06:22:57;7.93;;;7.63;;
6386;SDS011;3226;42.162;24.756;2023-07-13T06:25:25;6.67;;;6.37;;
6386;SDS011;3226;42.162;24.756;2023-07-13T06:27:55;6.87;;;6.57;;
6386;SDS011;3226;42.162;24.756;2023-07-13T06:30:23;7.50;;;7.20;;
6386;SDS011;3226;42.162;24.756;2023-07-13T06:32:51;10.20;;;9.73;;
6386;SDS011;3226;42.162;24.756;2023-07-13T06:35:19;6.93;;;6.63;;
6386;SDS011;3226;42.162;24.756;2023-07-13T06:37:48;8.17;;;7.87;;
6386;SDS011;3226;42.162;24.756;2023-07-13T06:40:16;6.90;;;6.60;;
6386;SDS011;3226;42.162;24.756;2023-07-13T06:42:44;7.57;;;7.27;;
6386;SDS011;3226;42.162;24.756;2023-07-13T06:45:14;7.90;;;7.60;;
6386;SDS011;3226;42.162;24.756;2023-07-13T06:47:42;8.00;;;7.63;;
6386;SDS011;3226;42.162;24.756;2023-07-13T06:50:10;6.80;;;6.50;;
6386;SDS011;3226;42.162;24.756;2023-07-13T06:52:38;8.13;;;7.73;;
6386;SDS011;3226;42.162;24.756;2023-07-13T06:55:06;7.23;;;6.93;;
6386;SDS011;3226;42.162;24.756;2023-07-13T06:57:34;8.73;;;8.33;;
6386;SDS011;3226;42.162;24.756;2023-07-13T07:00:03;7.50;;;7.20;;
6386;SDS011;3226;42.162;24.756;2023-07-13T07:02:34;7.63;;;7.33;;
6386;SDS011;3226;42.162;24.756;2023-07-13T07:05:02;7.93;;;7.63;;
6386;SDS011;3226;42.162;24.756;2023-07-13T07:07:31;8.67;;;8.27;;
6386;SDS011;3226;42.162;24.756;2023-07-13T07:09:59;8.80;;;8.30;;
6386;SDS011;3226;42.162;24.756;2023-07-13T07:12:27;9.47;;;9.07;;
6386;SDS011;3226;42.162;24.756;2023-07-13T07:14:55;9.00;;;8.60;;
6386;SDS011;3226;42.162;24.756;2023-07-13T07:17:23;7.77;;;7.47;;
6386;SDS011;3226;42.162;24.756;2023-07-13T07:19:53;8.23;;;7.93;;
6386;SDS011;3226;42.162;24.756;2023-07-13T07:22:22;8.13;;;7.83;;
6386;SDS011;3226;42.162;24.756;2023-07-13T07:24:53;8.93;;;8.53;;
6386;SDS011;3226;42.162;24.756;2023-07-13T07:27:21;11.53;;;11.03;;
6386;SDS011;3226;42.162;24.756;2023-07-13T07:29:52;9.70;;;9.20;;
6386;SDS011;3226;42.162;24.756;2023-07-13T07:32:40;10.63;;;10.17;;
6386;SDS011;3226;42.162;24.756;2023-07-13T07:35:13;7.60;;;7.30;;
6386;SDS011;3226;42.162;24.756;2023-07-13T07:37:41;9.20;;;8.60;;
6386;SDS011;3226;42.162;24.756;2023-07-13T07:40:12;9.13;;;8.73;;
6386;SDS011;3226;42.162;24.756;2023-07-13T07:42:43;8.93;;;8.53;;
6386;SDS011;3226;42.162;24.756;2023-07-13T07:45:11;8.83;;;8.43;;
6386;SDS011;3226;42.162;24.756;2023-07-13T07:47:41;8.00;;;7.70;;
6386;SDS011;3226;42.162;24.756;2023-07-13T07:50:09;6.90;;;6.60;;
6386;SDS011;3226;42.162;24.756;2023-07-13T07:52:39;7.50;;;7.20;;
6386;SDS011;3226;42.162;24.756;2023-07-13T07:55:07;7.17;;;6.87;;
6386;SDS011;3226;42.162;24.756;2023-07-13T07:57:38;8.50;;;8.10;;
6386;SDS011;3226;42.162;24.756;2023-07-13T08:00:10;9.53;;;9.13;;
6386;SDS011;3226;42.162;24.756;2023-07-13T08:02:41;7.70;;;7.40;;
6386;SDS011;3226;42.162;24.756;2023-07-13T08:05:12;7.57;;;7.27;;
6386;SDS011;3226;42.162;24.756;2023-07-13T08:07:44;7.50;;;7.20;;
6386;SDS011;3226;42.162;24.756;2023-07-13T08:10:12;7.87;;;7.57;;
6386;SDS011;3226;42.162;24.756;2023-07-13T08:12:40;7.37;;;7.07;;
6386;SDS011;3226;42.162;24.756;2023-07-13T08:15:28;7.87;;;7.57;;
6386;SDS011;3226;42.162;24.756;2023-07-13T08:17:56;7.27;;;6.97;;
6386;SDS011;3226;42.162;24.756;2023-07-13T08:20:25;8.67;;;8.27;;
6386;SDS011;3226;42.162;24.756;2023-07-13T08:22:54;8.63;;;8.23;;
6386;SDS011;3226;42.162;24.756;2023-07-13T08:25:22;9.90;;;9.50;;
6386;SDS011;3226;42.162;24.756;2023-07-13T08:27:50;7.60;;;7.30;;
6386;SDS011;3226;42.162;24.756;2023-07-13T08:30:18;8.50;;;8.10;;
6386;SDS011;3226;42.162;24.756;2023-07-13T08:32:47;8.10;;;7.73;;
6386;SDS011;3226;42.162;24.756;2023-07-13T08:35:15;7.20;;;6.90;;
6386;SDS011;3226;42.162;24.756;2023-07-13T08:37:44;9.73;;;8.60;;
6386;SDS011;3226;42.162;24.756;2023-07-13T08:40:13;9.60;;;9.20;;
6386;SDS011;3226;42.162;24.756;2023-07-13T08:42:42;10.23;;;9.73;;
6386;SDS011;3226;42.162;24.756;2023-07-13T08:45:17;9.27;;;8.87;;
6386;SDS011;3226;42.162;24.756;2023-07-13T08:47:51;8.60;;;8.20;;
6386;SDS011;3226;42.162;24.756;2023-07-13T08:50:24;9.57;;;9.17;;
6386;SDS011;3226;42.162;24.756;2023-07-13T08:52:55;10.83;;;10.33;;
6386;SDS011;3226;42.162;24.756;2023-07-13T08:55:27;11.67;;;11.17;;
6386;SDS011;3226;42.162;24.756;2023-07-13T08:58:02;8.00;;;7.70;;
6386;SDS011;3226;42.162;24.756;2023-07-13T09:00:35;9.07;;;8.67;;
6386;SDS011;3226;42.162;24.756;2023-07-13T09:03:25;8.63;;;8.23;;
6386;SDS011;3226;42.162;24.756;2023-07-13T09:06:04;7.70;;;7.40;;
6386;SDS011;3226;42.162;24.756;2023-07-13T09:08:38;8.67;;;8.27;;
6386;SDS011;3226;42.162;24.756;2023-07-13T09:11:19;9.13;;;8.73;;
6386;SDS011;3226;42.162;24.756;2023-07-13T09:14:06;7.90;;;7.60;;
6386;SDS011;3226;42.162;24.756;2023-07-13T09:16:52;7.63;;;7.33;;
6386;SDS011;3226;42.162;24.756;2023-07-13T09:19:24;8.23;;;7.93;;
6386;SDS011;3226;42.162;24.756;2023-07-13T09:21:59;8.80;;;8.40;;
6386;SDS011;3226;42.162;24.756;2023-07-13T09:24:35;7.47;;;7.17;;
6386;SDS011;3226;42.162;24.756;2023-07-13T09:27:15;7.33;;;7.03;;
6386;SDS011;3226;42.162;24.756;2023-07-13T09:29:48;7.30;;;7.00;;
6386;SDS011;3226;42.162;24.756;2023-07-13T09:32:20;6.83;;;6.53;;
6386;SDS011;3226;42.162;24.756;2023-07-13T09:34:52;6.90;;;6.60;;
6386;SDS011;3226;42.162;24.756;2023-07-13T09:37:20;8.07;;;7.73;;
6386;SDS011;3226;42.162;24.756;2023-07-13T09:39:51;12.17;;;11.60;;
6386;SDS011;3226;42.162;24.756;2023-07-13T09:42:23;9.00;;;8.60;;
6386;SDS011;3226;42.162;24.756;2023-07-13T09:44:53;7.63;;;7.33;;
6386;SDS011;3226;42.162;24.756;2023-07-13T09:47:24;7.70;;;7.40;;
6386;SDS011;3226;42.162;24.756;2023-07-13T09:49:54;6.93;;;6.63;;
6386;SDS011;3226;42.162;24.756;2023-07-13T09:52:39;8.60;;;8.20;;
6386;SDS011;3226;42.162;24.756;2023-07-13T09:55:23;8.87;;;8.47;;
6386;SDS011;3226;42.162;24.756;2023-07-13T09:57:54;9.00;;;8.60;;
6386;SDS011;3226;42.162;24.756;2023-07-13T10:00:23;7.17;;;6.87;;
6386;SDS011;3226;42.162;24.756;2023-07-13T10:02:57;7.73;;;7.43;;
6386;SDS011;3226;42.162;24.756;2023-07-13T10:05:27;7.10;;;6.80;;
6386;SDS011;3226;42.162;24.756;2023-07-13T10:07:55;8.07;;;7.77;;
6386;SDS011;3226;42.162;24.756;2023-07-13T10:10:23;10.57;;;10.10;;
6386;SDS011;3226;42.162;24.756;2023-07-13T10:12:51;7.40;;;7.10;;
6386;SDS011;3226;42.162;24.756;2023-07-13T10:15:21;8.65;;;8.25;;
6386;SDS011;3226;42.162;24.756;2023-07-13T10:17:52;8.70;;;8.30;;
6386;SDS011;3226;42.162;24.756;2023-07-13T10:20:26;7.50;;;7.20;;
6386;SDS011;3226;42.162;24.756;2023-07-13T10:22:54;7.43;;;7.13;;
6386;SDS011;3226;42.162;24.756;2023-07-13T10:25:28;7.20;;;6.90;;
6386;SDS011;3226;42.162;24.756;2023-07-13T10:28:02;6.88;;;6.57;;
6386;SDS011;3226;42.162;24.756;2023-07-13T10:30:34;6.97;;;6.68;;
6386;SDS011;3226;42.162;24.756;2023-07-13T10:33:09;7.50;;;7.20;;
6386;SDS011;3226;42.162;24.756;2023-07-13T10:35:40;6.80;;;6.50;;
6386;SDS011;3226;42.162;24.756;2023-07-13T10:38:12;7.78;;;7.47;;
6386;SDS011;3226;42.162;24.756;2023-07-13T10:40:48;11.43;;;10.57;;
6386;SDS011;3226;42.162;24.756;2023-07-13T10:43:23;15.30;;;14.60;;
6386;SDS011;3226;42.162;24.756;2023-07-13T10:45:57;15.88;;;15.13;;
6386;SDS011;3226;42.162;24.756;2023-07-13T10:48:28;10.27;;;9.82;;
6386;SDS011;3226;42.162;24.756;2023-07-13T10:50:58;8.95;;;8.55;;
6386;SDS011;3226;42.162;24.756;2023-07-13T10:53:28;8.40;;;8.02;;
6386;SDS011;3226;42.162;24.756;2023-07-13T10:55:59;7.07;;;6.78;;
6386;SDS011;3226;42.162;24.756;2023-07-13T10:58:31;8.80;;;8.40;;
6386;SDS011;3226;42.162;24.756;2023-07-13T11:01:03;8.73;;;8.32;;
6386;SDS011;3226;42.162;24.756;2023-07-13T11:03:36;7.55;;;7.25;;
6386;SDS011;3226;42.162;24.756;2023-07-13T11:06:09;8.02;;;7.72;;
6386;SDS011;3226;42.162;24.756;2023-07-13T11:08:51;8.88;;;8.45;;
6386;SDS011;3226;42.162;24.756;2023-07-13T11:11:36;7.85;;;7.55;;
6386;SDS011;3226;42.162;24.756;2023-07-13T11:14:14;8.10;;;7.78;;
6386;SDS011;3226;42.162;24.756;2023-07-13T11:16:55;10.90;;;10.40;;
6386;SDS011;3226;42.162;24.756;2023-07-13T11:19:25;7.97;;;7.68;;
6386;SDS011;3226;42.162;24.756;2023-07-13T11:22:02;9.90;;;9.35;;
6386;SDS011;3226;42.162;24.756;2023-07-13T11:27:31;9.30;;;8.90;;
6386;SDS011;3226;42.162;24.756;2023-07-13T11:30:08;9.27;;;8.87;;
6386;SDS011;3226;42.162;24.756;2023-07-13T11:32:50;8.20;;;7.85;;
6386;SDS011;3226;42.162;24.756;2023-07-13T11:35:21;9.50;;;9.10;;
6386;SDS011;3226;42.162;24.756;2023-07-13T11:37:51;10.18;;;9.77;;
6386;SDS011;3226;42.162;24.756;2023-07-13T11:40:21;9.10;;;8.70;;
6386;SDS011;3226;42.162;24.756;2023-07-13T11:42:58;10.07;;;9.68;;
6386;SDS011;3226;42.162;24.756;2023-07-13T11:45:30;8.18;;;7.88;;
6386;SDS011;3226;42.162;24.756;2023-07-13T11:48:22;7.65;;;7.35;;
6386;SDS011;3226;42.162;24.756;2023-07-13T11:50:53;6.93;;;6.63;;
6386;SDS011;3226;42.162;24.756;2023-07-13T11:53:26;7.30;;;7.00;;
6386;SDS011;3226;42.162;24.756;2023-07-13T11:55:57;7.38;;;7.07;;
6386;SDS011;3226;42.162;24.756;2023-07-13T11:58:26;6.90;;;6.60;;
6386;SDS011;3226;42.162;24.756;2023-07-13T12:00:59;6.78;;;6.47;;
6386;SDS011;3226;42.162;24.756;2023-07-13T12:03:31;7.40;;;7.10;;
6386;SDS011;3226;42.162;24.756;2023-07-13T12:06:02;6.50;;;6.20;;
6386;SDS011;3226;42.162;24.756;2023-07-13T12:08:37;6.57;;;6.28;;
6386;SDS011;3226;42.162;24.756;2023-07-13T12:11:11;7.97;;;7.60;;
6386;SDS011;3226;42.162;24.756;2023-07-13T12:13:44;8.98;;;8.48;;
6386;SDS011;3226;42.162;24.756;2023-07-13T12:16:16;8.80;;;8.40;;
6386;SDS011;3226;42.162;24.756;2023-07-13T12:18:50;7.80;;;7.50;;
6386;SDS011;3226;42.162;24.756;2023-07-13T12:21:22;6.95;;;6.65;;
6386;SDS011;3226;42.162;24.756;2023-07-13T12:23:56;7.15;;;6.85;;
6386;SDS011;3226;42.162;24.756;2023-07-13T12:26:24;6.85;;;6.55;;
6386;SDS011;3226;42.162;24.756;2023-07-13T12:28:53;6.97;;;6.68;;
6386;SDS011;3226;42.162;24.756;2023-07-13T12:31:26;7.13;;;6.82;;
6386;SDS011;3226;42.162;24.756;2023-07-13T12:33:59;7.45;;;7.15;;
6386;SDS011;3226;42.162;24.756;2023-07-13T12:36:32;7.95;;;7.65;;
6386;SDS011;3226;42.162;24.756;2023-07-13T12:39:04;8.23;;;7.90;;
6386;SDS011;3226;42.162;24.756;2023-07-13T12:41:40;8.15;;;7.85;;
6386;SDS011;3226;42.162;24.756;2023-07-13T12:44:14;7.30;;;7.00;;
6386;SDS011;3226;42.162;24.756;2023-07-13T12:46:53;7.57;;;7.18;;
6386;SDS011;3226;42.162;24.756;2023-07-13T12:49:24;7.57;;;7.28;;
6386;SDS011;3226;42.162;24.756;2023-07-13T12:51:56;8.25;;;7.85;;
6386;SDS011;3226;42.162;24.756;2023-07-13T12:54:26;8.15;;;7.82;;
6386;SDS011;3226;42.162;24.756;2023-07-13T12:56:55;8.35;;;7.95;;
6386;SDS011;3226;42.162;24.756;2023-07-13T12:59:27;7.13;;;6.82;;
6386;SDS011;3226;42.162;24.756;2023-07-13T13:02:00;6.70;;;6.40;;
6386;SDS011;3226;42.162;24.756;2023-07-13T13:04:29;7.30;;;7.00;;
6386;SDS011;3226;42.162;24.756;2023-07-13T13:07:02;7.93;;;7.53;;
6386;SDS011;3226;42.162;24.756;2023-07-13T13:09:33;7.30;;;7.00;;
6386;SDS011;3226;42.162;24.756;2023-07-13T13:12:01;7.45;;;7.15;;
6386;SDS011;3226;42.162;24.756;2023-07-13T13:14:32;7.22;;;6.93;;
6386;SDS011;3226;42.162;24.756;2023-07-13T13:17:01;7.50;;;7.20;;
6386;SDS011;3226;42.162;24.756;2023-07-13T13:19:29;7.10;;;6.80;;
6386;SDS011;3226;42.162;24.756;2023-07-13T13:21:58;7.93;;;7.63;;
6386;SDS011;3226;42.162;24.756;2023-07-13T13:24:26;9.13;;;8.73;;
6386;SDS011;3226;42.162;24.756;2023-07-13T13:26:55;8.10;;;7.78;;
6386;SDS011;3226;42.162;24.756;2023-07-13T13:29:24;8.60;;;8.20;;
6386;SDS011;3226;42.162;24.756;2023-07-13T13:31:53;7.15;;;6.85;;
6386;SDS011;3226;42.162;24.756;2023-07-13T13:34:23;7.28;;;6.97;;
6386;SDS011;3226;42.162;24.756;2023-07-13T13:36:53;8.18;;;7.78;;
6386;SDS011;3226;42.162;24.756;2023-07-13T13:39:27;8.20;;;7.78;;
6386;SDS011;3226;42.162;24.756;2023-07-13T13:42:00;7.30;;;7.00;;
6386;SDS011;3226;42.162;24.756;2023-07-13T13:44:28;7.90;;;7.55;;
6386;SDS011;3226;42.162;24.756;2023-07-13T13:46:56;7.93;;;7.63;;
6386;SDS011;3226;42.162;24.756;2023-07-13T13:49:27;8.07;;;7.72;;
6386;SDS011;3226;42.162;24.756;2023-07-13T13:51:57;8.05;;;7.70;;
6386;SDS011;3226;42.162;24.756;2023-07-13T13:54:25;7.70;;;7.40;;
6386;SDS011;3226;42.162;24.756;2023-07-13T13:56:54;7.57;;;7.28;;
6386;SDS011;3226;42.162;24.756;2023-07-13T13:59:26;7.97;;;7.65;;
6386;SDS011;3226;42.162;24.756;2023-07-13T14:01:54;7.93;;;7.60;;
6386;SDS011;3226;42.162;24.756;2023-07-13T14:04:22;7.63;;;7.32;;
6386;SDS011;3226;42.162;24.756;2023-07-13T14:06:51;8.55;;;8.15;;
6386;SDS011;3226;42.162;24.756;2023-07-13T14:09:19;8.02;;;7.72;;
6386;SDS011;3226;42.162;24.756;2023-07-13T14:11:48;7.53;;;7.22;;
6386;SDS011;3226;42.162;24.756;2023-07-13T14:14:19;8.15;;;7.75;;
6386;SDS011;3226;42.162;24.756;2023-07-13T14:16:50;7.18;;;6.88;;
6386;SDS011;3226;42.162;24.756;2023-07-13T14:19:21;7.10;;;6.80;;
6386;SDS011;3226;42.162;24.756;2023-07-13T14:21:52;7.05;;;6.75;;
6386;SDS011;3226;42.162;24.756;2023-07-13T14:24:21;7.60;;;7.30;;
6386;SDS011;3226;42.162;24.756;2023-07-13T14:26:49;8.55;;;8.15;;
6386;SDS011;3226;42.162;24.756;2023-07-13T14:29:17;8.45;;;8.05;;
6386;SDS011;3226;42.162;24.756;2023-07-13T14:31:50;7.78;;;7.47;;
6386;SDS011;3226;42.162;24.756;2023-07-13T14:34:19;8.43;;;8.02;;
6386;SDS011;3226;42.162;24.756;2023-07-13T14:36:48;7.72;;;7.43;;
6386;SDS011;3226;42.162;24.756;2023-07-13T14:39:20;7.50;;;7.20;;
6386;SDS011;3226;42.162;24.756;2023-07-13T14:41:50;7.90;;;7.60;;
6386;SDS011;3226;42.162;24.756;2023-07-13T14:44:20;7.32;;;7.03;;
6386;SDS011;3226;42.162;24.756;2023-07-13T14:46:50;6.57;;;6.28;;
6386;SDS011;3226;42.162;24.756;2023-07-13T14:49:21;7.28;;;6.97;;
6386;SDS011;3226;42.162;24.756;2023-07-13T14:51:54;6.22;;;6.03;;
6386;SDS011;3226;42.162;24.756;2023-07-13T14:54:25;7.10;;;6.80;;
6386;SDS011;3226;42.162;24.756;2023-07-13T14:56:53;7.63;;;7.32;;
6386;SDS011;3226;42.162;24.756;2023-07-13T14:59:21;6.90;;;6.60;;
6386;SDS011;3226;42.162;24.756;2023-07-13T15:01:50;7.13;;;6.82;;
6386;SDS011;3226;42.162;24.756;2023-07-13T15:04:18;6.65;;;6.35;;
6386;SDS011;3226;42.162;24.756;2023-07-13T15:06:56;6.60;;;6.30;;
6386;SDS011;3226;42.162;24.756;2023-07-13T15:09:28;7.32;;;7.03;;
6386;SDS011;3226;42.162;24.756;2023-07-13T15:11:56;7.18;;;6.88;;
6386;SDS011;3226;42.162;24.756;2023-07-13T15:14:26;7.20;;;6.90;;
6386;SDS011;3226;42.162;24.756;2023-07-13T15:16:58;7.18;;;6.88;;
6386;SDS011;3226;42.162;24.756;2023-07-13T15:19:26;8.20;;;7.80;;
6386;SDS011;3226;42.162;24.756;2023-07-13T15:21:55;7.72;;;7.43;;
6386;SDS011;3226;42.162;24.756;2023-07-13T15:24:24;7.80;;;7.50;;